Time;durP1;ratioP1;P1;durP2;ratioP2;P2;SDS_P1;SDS_P2;PMS_P1;PMS_P2;Temp;Humidity;BMP_temperature;BMP_pressure;BME280_temperature;BME280_humidity;BME280_pressure;Samples;Min_cycle;Max_cycle;Signal;HPM_P1;HPM_P2
2022/12/03 00:02:01;;;;;;;21.17;9.53;;;;;;;-9.62;56.77;102851.75;4897469;29;20044;-81
2022/12/03 00:04:27;;;;;;;20.93;8.50;;;;;;;-9.65;56.88;102853.91;4882889;29;20045;-81
2022/12/03 00:06:53;;;;;;;26.63;10.17;;;;;;;-9.63;56.77;102849.06;4898990;29;20040;-81
2022/12/03 00:09:19;;;;;;;24.47;9.43;;;;;;;-9.54;56.53;102857.72;4899960;29;20131;-80
2022/12/03 00:11:45;;;;;;;22.40;8.60;;;;;;;-9.72;56.72;102827.06;4900921;29;20060;-80
2022/12/03 00:14:11;;;;;;;19.70;9.33;;;;;;;-9.62;56.79;102843.31;4902293;29;20045;-81
2022/12/03 00:16:37;;;;;;;25.57;9.43;;;;;;;-9.64;56.87;102854.81;4886143;29;20202;-81
2022/12/03 00:19:05;;;;;;;25.10;9.43;;;;;;;-9.81;57.00;102825.03;4905198;29;20048;-81
2022/12/03 00:21:31;;;;;;;30.40;11.00;;;;;;;-9.91;56.03;102848.22;4902572;29;20418;-79
2022/12/03 00:23:57;;;;;;;31.73;14.17;;;;;;;-10.06;56.47;102843.13;4893941;29;20056;-79
2022/12/03 00:26:24;;;;;;;34.30;15.40;;;;;;;-9.93;57.19;102864.78;4924502;29;20025;-80
2022/12/03 00:28:50;;;;;;;36.73;17.27;;;;;;;-9.98;57.57;102841.53;4924416;29;20083;-80
2022/12/03 00:31:16;;;;;;;35.53;17.13;;;;;;;-10.23;56.72;102782.19;4892228;29;20024;-80
2022/12/03 00:33:43;;;;;;;42.87;18.23;;;;;;;-10.17;56.67;102780.41;4889268;29;20621;-79
2022/12/03 00:36:11;;;;;;;35.70;16.83;;;;;;;-9.62;57.19;102874.44;4889937;29;20046;-80
2022/12/03 00:38:38;;;;;;;27.13;13.40;;;;;;;-9.60;57.04;102867.97;4897741;29;20128;-80
2022/12/03 00:41:04;;;;;;;24.43;10.47;;;;;;;-9.86;55.81;102867.34;4884232;29;20140;-80
2022/12/03 00:43:30;;;;;;;26.30;10.53;;;;;;;-9.94;56.84;102879.00;4867747;29;20051;-80
2022/12/03 00:45:56;;;;;;;22.40;9.83;;;;;;;-10.07;56.45;102875.66;4885102;29;20045;-79
2022/12/03 00:48:23;;;;;;;23.43;10.43;;;;;;;-10.31;56.24;102872.84;4882937;29;20044;-77
2022/12/03 00:50:49;;;;;;;26.00;11.53;;;;;;;-10.46;56.34;102855.81;4882369;29;20495;-79
2022/12/03 00:53:16;;;;;;;32.63;12.63;;;;;;;-10.70;55.93;102858.72;4851018;29;20526;-78
2022/12/03 00:55:42;;;;;;;30.03;11.93;;;;;;;-10.56;57.23;102896.59;4882051;29;20045;-78
2022/12/03 00:58:08;;;;;;;35.60;13.27;;;;;;;-10.50;57.81;102882.25;4883586;29;20041;-82
2022/12/03 01:00:35;;;;;;;34.27;12.07;;;;;;;-10.49;57.19;102895.75;4882922;29;20053;-76
2022/12/03 01:03:01;;;;;;;32.30;12.23;;;;;;;-10.82;57.02;102875.69;4883981;29;20515;-80
2022/12/03 01:05:27;;;;;;;32.03;12.50;;;;;;;-11.00;57.48;102869.22;4886758;29;20185;-77
2022/12/03 01:07:54;;;;;;;42.23;12.00;;;;;;;-10.92;57.49;102887.09;4868956;29;20128;-80
2022/12/03 01:10:20;;;;;;;31.67;11.87;;;;;;;-11.27;57.17;102858.38;4885500;29;20045;-81
2022/12/03 01:12:46;;;;;;;28.20;10.90;;;;;;;-11.39;57.72;102829.16;4867057;29;20052;-80
2022/12/03 01:15:12;;;;;;;26.83;11.10;;;;;;;-11.01;57.96;102893.50;4883088;29;20059;-80
2022/12/03 01:17:38;;;;;;;30.83;10.93;;;;;;;-11.06;58.24;102890.41;4882547;29;20514;-83
2022/12/03 01:20:07;;;;;;;23.40;10.03;;;;;;;-10.97;57.37;102900.72;4886425;29;20036;-79
2022/12/03 01:22:34;;;;;;;28.67;10.93;;;;;;;-10.82;58.42;102906.81;4879330;29;20052;-76
2022/12/03 01:25:00;;;;;;;30.30;10.17;;;;;;;-10.85;58.08;102886.28;4872063;29;20506;-80
2022/12/03 01:27:26;;;;;;;24.93;9.53;;;;;;;-10.77;57.22;102909.91;4868611;29;20037;-80
2022/12/03 01:29:53;;;;;;;24.07;9.73;;;;;;;-10.96;57.84;102882.41;4871529;29;20065;-78
2022/12/03 01:32:18;;;;;;;30.50;11.53;;;;;;;-10.75;58.28;102890.88;4867203;29;20042;-82
2022/12/03 01:34:46;;;;;;;23.73;9.37;;;;;;;-10.75;57.78;102889.22;4863224;29;20056;-80
2022/12/03 01:37:13;;;;;;;26.60;9.23;;;;;;;-10.73;56.96;102908.66;4864858;29;20571;-81
2022/12/03 01:39:39;;;;;;;32.43;10.37;;;;;;;-10.93;58.22;102887.84;4863877;29;20125;-81
2022/12/03 01:42:10;;;;;;;22.30;8.57;;;;;;;-11.29;56.92;102863.91;4871010;29;20137;-80
2022/12/03 01:44:38;;;;;;;24.80;9.50;;;;;;;-11.21;58.56;102864.19;4875080;29;20049;-82
2022/12/03 01:47:09;;;;;;;23.70;10.33;;;;;;;-10.74;58.34;102917.84;4874488;29;20117;-78
2022/12/03 01:49:44;;;;;;;27.02;9.80;;;;;;;-11.21;57.26;102884.31;4856367;29;20093;-77
2022/12/03 01:52:16;;;;;;;21.67;8.77;;;;;;;-11.46;57.64;102859.25;4870822;29;20049;-77
2022/12/03 01:54:59;;;;;;;23.83;9.33;;;;;;;-10.92;58.27;102922.31;4873748;29;20056;-81
2022/12/03 01:57:41;;;;;;;22.57;9.53;;;;;;;-11.06;58.38;102870.28;4865967;29;20041;-79
2022/12/03 02:00:13;;;;;;;22.37;9.67;;;;;;;-10.77;58.51;102925.00;4847533;29;20393;-81
2022/12/03 02:02:40;;;;;;;;;;;;;;;-10.61;58.02;102925.34;4867133;29;20049;-78
2022/12/03 02:05:16;;;;;;;23.03;9.17;;;;;;;-10.63;57.79;102920.09;4863528;29;19919;-79
2022/12/03 02:07:43;;;;;;;22.87;9.07;;;;;;;-10.70;57.04;102922.53;4862632;29;20049;-78
2022/12/03 02:10:12;;;;;;;21.13;8.90;;;;;;;-10.80;58.28;102920.47;4867496;29;20055;-79
2022/12/03 02:13:01;;;;;;;19.90;8.93;;;;;;;-11.09;58.28;102858.91;4867439;29;20559;-80
2022/12/03 02:15:27;;;;;;;23.47;9.80;;;;;;;-10.86;58.55;102909.63;4866627;29;20061;-79
2022/12/03 02:17:54;;;;;;;23.57;10.07;;;;;;;-10.82;58.29;102906.81;4865040;29;20113;-79
2022/12/03 02:20:21;;;;;;;24.23;9.60;;;;;;;-10.75;57.84;102903.44;4872858;29;20135;-79
2022/12/03 02:22:56;;;;;;;29.00;11.63;;;;;;;-10.67;58.11;102922.91;4864706;29;20044;-81
2022/12/03 02:25:26;;;;;;;29.80;11.63;;;;;;;-10.86;58.49;102908.72;4881868;29;20083;-80
2022/12/03 02:27:54;;;;;;;31.40;12.43;;;;;;;-10.80;57.70;102904.47;4881920;29;20100;-81
2022/12/03 02:30:24;;;;;;;26.87;11.53;;;;;;;-10.70;57.42;102922.53;4882456;29;20037;-81
2022/12/03 02:32:51;;;;;;;29.43;11.20;;;;;;;-10.87;57.90;102884.25;4881175;29;20055;-80
2022/12/03 02:38:16;;;;;;;31.17;12.03;;;;;;;-10.99;56.29;102897.09;4881134;29;20045;-79
2022/12/03 02:40:45;;;;;;;29.97;13.23;;;;;;;-10.98;57.19;102919.03;4864637;29;20100;-81
2022/12/03 02:43:15;;;;;;;32.13;12.97;;;;;;;-11.26;56.93;102897.00;4849545;29;20454;-80
2022/12/03 02:45:49;;;;;;;35.07;12.90;;;;;;;-11.30;57.95;102902.34;4850938;29;20450;-81
2022/12/03 02:48:22;;;;;;;34.87;13.83;;;;;;;-11.18;58.21;102915.59;4881414;29;20060;-80
2022/12/03 02:50:55;;;;;;;33.17;13.90;;;;;;;-11.08;57.69;102921.06;4866616;29;20053;-81
2022/12/03 02:53:30;;;;;;;27.93;11.87;;;;;;;-11.24;57.91;102911.56;4870772;29;20053;-79
2022/12/03 02:56:00;;;;;;;33.80;12.37;;;;;;;-11.13;57.36;102912.94;4886907;29;20029;-80
2022/12/03 02:58:29;;;;;;;31.30;11.77;;;;;;;-11.29;58.65;102894.09;4855380;29;20404;-80
2022/12/03 03:00:57;;;;;;;26.97;9.13;;;;;;;-11.27;57.43;102926.28;4865841;29;20064;-79
2022/12/03 03:03:26;;;;;;;27.93;11.03;;;;;;;-11.54;58.15;102895.97;4881056;29;20423;-81
2022/12/03 03:05:55;;;;;;;26.03;10.57;;;;;;;-11.32;58.28;102933.94;4881164;29;20458;-82
2022/12/03 03:08:22;;;;;;;20.27;7.80;;;;;;;-11.42;57.58;102924.28;4863744;29;20041;-81
2022/12/03 03:10:49;;;;;;;25.90;10.07;;;;;;;-11.52;58.95;102910.53;4881108;29;20140;-80
2022/12/03 03:13:17;;;;;;;21.87;9.97;;;;;;;-11.60;57.70;102913.69;4881096;29;20041;-78
2022/12/03 03:15:44;;;;;;;28.00;11.53;;;;;;;-11.39;58.93;102942.31;4864974;29;20052;-80
2022/12/03 03:18:12;;;;;;;24.70;11.03;;;;;;;-11.36;57.90;102941.06;4848519;29;20069;-81
2022/12/03 03:20:39;;;;;;;21.80;9.50;;;;;;;-11.51;57.75;102942.50;4894059;29;20044;-80
2022/12/03 03:23:15;;;;;;;16.37;6.07;;;;;;;-11.56;58.23;102942.63;4868667;29;20051;-77
2022/12/03 03:25:44;;;;;;;24.00;10.03;;;;;;;-11.66;58.35;102938.88;4900176;29;20494;-79
2022/12/03 03:28:12;;;;;;;28.87;10.73;;;;;;;-11.57;59.29;102934.16;4877647;29;20104;-78
2022/12/03 03:30:39;;;;;;;27.57;10.60;;;;;;;-11.43;59.31;102951.03;4914417;29;20036;-77
2022/12/03 03:33:06;;;;;;;24.50;10.07;;;;;;;-11.29;59.68;102941.88;4915978;29;20044;-81
2022/12/03 03:35:34;;;;;;;29.87;11.00;;;;;;;-11.22;58.97;102929.38;4907879;29;20096;-81
2022/12/03 03:38:00;;;;;;;26.20;9.37;;;;;;;-10.95;59.49;102951.22;4912345;29;20084;-82
2022/12/03 03:40:27;;;;;;;22.57;9.43;;;;;;;-11.46;58.14;102889.41;4909935;29;20040;-78
2022/12/03 03:42:57;;;;;;;22.40;8.30;;;;;;;-11.36;57.98;102938.56;4896536;29;20045;-82
2022/12/03 03:45:23;;;;;;;27.30;10.17;;;;;;;-11.30;59.06;102958.56;4883326;29;20072;-81
2022/12/03 03:47:49;;;;;;;20.67;8.30;;;;;;;-11.32;57.80;102961.59;4899259;29;20056;-78
2022/12/03 03:50:16;;;;;;;24.80;10.40;;;;;;;-11.59;59.23;102938.09;4898857;29;20047;-80
2022/12/03 03:52:43;;;;;;;22.37;8.87;;;;;;;-11.43;59.87;102955.19;4882014;29;20474;-79
2022/12/03 03:55:10;;;;;;;20.63;9.07;;;;;;;-11.38;59.05;102964.22;4898321;29;20048;-79
2022/12/03 03:57:38;;;;;;;23.73;9.07;;;;;;;-11.80;59.20;102932.06;4868272;29;20045;-82
2022/12/03 04:00:07;;;;;;;20.33;8.57;;;;;;;-11.69;60.50;102952.66;4866752;29;20448;-81
2022/12/03 04:02:35;;;;;;;20.93;8.40;;;;;;;-11.76;59.47;102980.19;4881538;29;20041;-79
2022/12/03 04:05:01;;;;;;;23.43;9.43;;;;;;;-11.82;59.81;102980.31;4882142;29;20084;-79
2022/12/03 04:07:30;;;;;;;19.20;7.80;;;;;;;-11.82;59.50;102996.31;4907427;29;20056;-78
2022/12/03 04:09:56;;;;;;;21.80;8.20;;;;;;;-12.00;59.47;102948.66;4908381;29;20087;-82
2022/12/03 04:15:09;;;;;;;25.13;10.00;;;;;;;-11.89;59.98;102953.47;4882670;29;20051;-80
2022/12/03 04:17:35;;;;;;;24.23;8.93;;;;;;;-11.74;59.20;102961.22;4902085;29;20041;-78
2022/12/03 04:20:02;;;;;;;22.60;9.00;;;;;;;-11.67;60.15;102964.72;4875185;29;20037;-81
2022/12/03 04:22:38;;;;;;;19.23;7.67;;;;;;;-11.70;58.58;102979.44;4874903;29;20045;-78
2022/12/03 04:30:37;;;;;;;24.03;8.50;;;;;;;-11.83;59.40;102964.34;4879829;29;20135;-79
2022/12/03 04:35:47;;;;;;;20.67;7.03;;;;;;;-11.65;59.15;102995.09;4863136;29;20040;-79
2022/12/03 04:38:15;;;;;;;20.13;8.47;;;;;;;-11.67;59.86;102999.91;4862845;29;20148;-80
2022/12/03 04:40:59;;;;;;;22.20;7.73;;;;;;;-11.82;59.78;102975.28;4847626;29;20052;-78
2022/12/03 04:43:27;;;;;;;18.63;7.60;;;;;;;-11.55;59.92;103000.63;4863435;29;20514;-78
2022/12/03 04:45:53;;;;;;;20.70;8.70;;;;;;;-11.88;59.83;102967.84;4863163;29;20128;-80
2022/12/03 04:48:19;;;;;;;21.50;8.10;;;;;;;-11.67;59.19;103004.03;4863948;29;20567;-81
2022/12/03 04:50:46;;;;;;;23.93;9.37;;;;;;;-11.86;59.42;102988.13;4883902;29;20047;-78
2022/12/03 04:53:12;;;;;;;22.87;9.10;;;;;;;-12.00;59.11;102971.25;4856618;29;20067;-78
2022/12/03 04:55:38;;;;;;;25.27;9.67;;;;;;;-12.00;60.11;102974.69;4881097;29;20060;-80
2022/12/03 04:58:04;;;;;;;23.73;9.07;;;;;;;-11.85;60.25;102989.94;4848749;29;20100;-81
2022/12/03 05:00:30;;;;;;;24.07;8.97;;;;;;;-11.87;60.36;102994.78;4867165;29;20073;-77
2022/12/03 05:02:56;;;;;;;26.60;9.83;;;;;;;-11.71;61.04;103011.88;4866987;29;20041;-81
2022/12/03 05:05:22;;;;;;;23.47;8.90;;;;;;;-11.65;59.54;103018.63;4882707;29;20041;-81
2022/12/03 05:07:48;;;;;;;25.33;9.53;;;;;;;-11.69;60.09;103013.88;4867173;29;20113;-79
2022/12/03 05:10:16;;;;;;;23.47;9.63;;;;;;;-11.72;60.22;102990.88;4851309;29;20044;-80
2022/12/03 05:12:43;;;;;;;25.47;9.27;;;;;;;-11.46;60.70;102993.38;4867576;29;20104;-79
2022/12/03 05:15:09;;;;;;;29.27;11.10;;;;;;;-11.36;60.22;102998.91;4863927;29;21372;-81
2022/12/03 05:17:35;;;;;;;33.83;11.33;;;;;;;-11.36;60.35;102987.94;4888120;29;20128;-78
2022/12/03 05:22:47;;;;;;;29.50;10.27;;;;;;;-11.09;61.06;102987.19;4911587;29;20479;-82
2022/12/03 05:25:13;;;;;;;27.33;11.20;;;;;;;-10.85;60.94;102983.50;4902623;29;20052;-79
2022/12/03 05:27:39;;;;;;;26.80;10.33;;;;;;;-10.68;59.67;103005.81;4900181;29;20056;-82
2022/12/03 05:30:05;;;;;;;25.90;9.30;;;;;;;-10.87;60.61;102985.84;4900162;29;20044;-78
2022/12/03 05:32:32;;;;;;;26.70;9.77;;;;;;;-10.77;59.75;103025.69;4884508;29;20055;-83
2022/12/03 05:34:58;;;;;;;25.77;9.60;;;;;;;-10.60;60.14;103021.19;4884770;29;20072;-81
2022/12/03 05:37:24;;;;;;;28.77;12.57;;;;;;;-10.50;60.62;103028.28;4885625;29;20491;-79
2022/12/03 05:39:50;;;;;;;26.57;10.63;;;;;;;-10.74;60.50;102985.81;4901598;29;20106;-79
2022/12/03 05:45:01;;;;;;;25.40;11.40;;;;;;;-10.30;60.93;103008.13;4901239;29;20059;-83
2022/12/03 05:47:30;;;;;;;35.77;10.87;;;;;;;-10.32;60.46;103019.63;4900982;29;20052;-80
2022/12/03 05:49:56;;;;;;;22.57;9.17;;;;;;;-10.47;60.42;102979.91;4902180;29;20056;-81
2022/12/03 05:52:22;;;;;;;27.73;9.60;;;;;;;-10.38;59.18;103011.28;4902864;29;20052;-77
2022/12/03 05:54:48;;;;;;;29.23;11.50;;;;;;;-10.31;59.49;103028.06;4919164;29;20154;-78
2022/12/03 05:57:14;;;;;;;30.27;11.30;;;;;;;-10.52;59.70;103011.19;4877016;29;20045;-79
2022/12/03 05:59:40;;;;;;;33.17;11.50;;;;;;;-10.54;60.77;102989.94;4884404;29;20052;-79
2022/12/03 06:02:06;;;;;;;34.33;12.13;;;;;;;-10.14;61.08;103007.53;4902732;29;20143;-80
2022/12/03 06:04:33;;;;;;;26.00;10.77;;;;;;;-10.40;59.26;102979.13;4905624;29;20120;-80
2022/12/03 06:06:59;;;;;;;29.60;11.93;;;;;;;-10.20;59.65;102982.50;4903807;29;20527;-80
2022/12/03 06:09:39;;;;;;;38.73;14.23;;;;;;;-10.33;59.67;102964.00;4867779;29;20040;-80
2022/12/03 06:12:07;;;;;;;26.87;11.67;;;;;;;-10.50;59.26;102988.00;4869766;29;20128;-82
2022/12/03 06:14:37;;;;;;;31.80;11.63;;;;;;;-10.30;60.11;103007.22;4885376;29;20051;-82
2022/12/03 06:17:03;;;;;;;30.50;10.97;;;;;;;-10.28;60.67;103005.78;4900073;29;20075;-82
2022/12/03 06:19:30;;;;;;;29.33;11.07;;;;;;;-10.10;59.75;102986.16;4896819;29;20045;-80
2022/12/03 06:21:56;;;;;;;29.53;11.87;;;;;;;-9.80;60.24;103028.50;4868726;29;20051;-80
2022/12/03 06:24:23;;;;;;;23.30;9.67;;;;;;;-9.76;59.90;103030.69;4885183;29;20049;-80
2022/12/03 06:26:49;;;;;;;31.13;10.73;;;;;;;-9.80;59.37;103018.41;4868930;29;20056;-77
2022/12/03 06:29:26;;;;;;;24.83;9.63;;;;;;;-10.60;58.99;102910.41;4874608;29;20037;-78
2022/12/03 06:31:55;;;;;;;34.77;10.70;;;;;;;-10.43;59.40;102929.25;4894764;29;20037;-81
2022/12/03 06:34:31;;;;;;;25.97;10.23;;;;;;;-10.00;59.64;103020.25;4857965;29;20047;-78
2022/12/03 06:37:35;;;;;;;26.63;10.97;;;;;;;-10.89;60.64;102843.81;4853988;29;20067;-79
2022/12/03 06:40:19;;;;;;;32.73;9.50;;;;;;;-11.52;59.32;102742.09;4840035;29;20490;-80
2022/12/03 06:42:55;;;;;;;27.63;10.70;;;;;;;-11.42;60.52;102720.66;4852146;29;20047;-79
2022/12/03 06:45:32;;;;;;;25.93;11.33;;;;;;;-10.39;60.37;102838.25;4867729;29;20071;-79
2022/12/03 06:48:29;;;;;;;27.53;11.17;;;;;;;-10.90;60.10;102723.75;4869551;29;20071;-79
2022/12/03 06:51:52;;;;;;;29.30;12.37;;;;;;;-10.71;59.67;102721.91;4854715;29;20045;-78
2022/12/03 06:54:18;;;;;;;32.83;12.70;;;;;;;-10.22;59.85;102830.25;4854051;29;20120;-79
2022/12/03 06:57:17;;;;;;;38.83;13.07;;;;;;;-9.61;61.03;102858.59;4869099;29;20041;-81
2022/12/03 07:00:02;;;;;;;31.88;13.27;;;;;;;-9.48;60.32;102881.19;4842757;29;20415;-81
2022/12/03 07:02:31;;;;;;;34.28;11.60;;;;;;;-9.71;59.05;102827.97;4869393;29;20036;-79
2022/12/03 07:04:57;;;;;;;37.13;13.40;;;;;;;-9.64;59.96;102834.66;4866537;29;20065;-80
2022/12/03 07:07:23;;;;;;;31.42;13.10;;;;;;;-10.23;59.96;102736.84;4880347;29;20044;-79
2022/12/03 07:09:57;;;;;;;31.95;13.38;;;;;;;-9.61;60.32;102827.47;4855740;29;20424;-81
2022/12/03 07:15:34;;;;;;;;;;;;;;;;;;;;;
2022/12/03 07:18:10;;;;;;;38.15;12.15;;;;;;;-8.22;60.94;102997.88;4871375;29;20025;-86
2022/12/03 07:20:44;;;;;;;31.30;12.50;;;;;;;-8.01;61.23;102996.06;4885433;23;20044;-85
2022/12/03 07:23:11;;;;;;;31.55;12.00;;;;;;;-9.49;61.05;102705.34;4881945;29;20045;-83
2022/12/03 07:25:44;;;;;;;30.70;12.45;;;;;;;-8.51;61.18;102820.16;4914779;23;20065;-83
2022/12/03 07:28:43;;;;;;;35.30;12.55;;;;;;;-9.21;59.54;102698.53;4895148;29;20075;-84
2022/12/03 07:31:16;;;;;;;42.10;15.18;;;;;;;-8.97;60.20;102704.63;4884966;29;20068;-82
2022/12/03 07:33:42;;;;;;;39.92;13.68;;;;;;;-7.83;60.14;102892.75;4884910;29;20051;-84
2022/12/03 07:36:42;;;;;;;36.20;14.02;;;;;;;-9.20;58.56;102702.84;4858454;29;20041;-82
2022/12/03 07:39:08;;;;;;;36.30;14.45;;;;;;;-8.19;59.50;102868.47;4869929;29;20064;-84
2022/12/03 07:41:59;;;;;;;24.75;9.30;;;;;;;-9.27;59.00;102705.34;4893684;29;20055;-84
2022/12/03 07:44:39;;;;;;;34.22;12.52;;;;;;;-8.73;60.21;102768.81;4897816;29;20053;-81
2022/12/03 07:47:28;;;;;;;31.17;11.55;;;;;;;-8.70;59.73;102767.53;4882482;29;20033;-85
2022/12/03 07:50:15;;;;;;;34.40;12.30;;;;;;;-9.30;59.90;102669.69;4877163;29;20041;-82
2022/12/03 07:53:13;;;;;;;30.08;10.90;;;;;;;-8.54;59.40;102798.00;4842723;29;20120;-83
2022/12/03 07:55:40;;;;;;;29.73;11.15;;;;;;;-8.59;59.88;102806.66;4890082;29;20105;-83
2022/12/03 07:58:09;;;;;;;26.63;11.05;;;;;;;-7.52;60.34;103007.56;4856505;29;20045;-87
2022/12/03 08:00:39;;;;;;;34.53;11.30;;;;;;;-8.81;59.59;102794.03;4852737;29;20060;-86
2022/12/03 08:03:05;;;;;;;28.20;10.80;;;;;;;-9.26;59.82;102740.84;4866348;29;20578;-85
2022/12/03 08:05:31;;;;;;;26.88;11.00;;;;;;;-9.50;60.56;102659.78;4866372;29;20119;-85
2022/12/03 08:07:58;;;;;;;31.13;11.50;;;;;;;-7.64;60.49;102995.31;4867213;29;20418;-80
2022/12/03 08:10:34;;;;;;;31.90;10.88;;;;;;;-7.73;59.38;102985.03;4889357;29;20048;-85
2022/12/03 08:13:12;;;;;;;29.20;10.90;;;;;;;-7.98;60.28;102887.72;4871083;29;20083;-83
2022/12/03 08:15:47;;;;;;;35.85;12.75;;;;;;;-8.83;60.90;102703.72;4866708;29;20133;-86
2022/12/03 08:18:23;;;;;;;34.65;12.70;;;;;;;-7.33;59.90;103006.41;4850436;29;20041;-85
2022/12/03 08:20:53;;;;;;;34.63;12.10;;;;;;;-7.65;60.98;102910.03;4866004;29;20425;-83
2022/12/03 08:23:25;;;;;;;30.40;12.20;;;;;;;-7.00;60.82;102978.09;4866707;29;20078;-86
2022/12/03 08:25:58;;;;;;;30.80;11.93;;;;;;;-7.84;60.90;102799.91;4882149;29;20068;-86
2022/12/03 08:28:40;;;;;;;33.17;11.77;;;;;;;-7.53;60.09;102813.47;4881832;29;20186;-85
2022/12/03 08:31:18;;;;;;;29.15;12.23;;;;;;;-6.92;60.90;102899.53;4883423;29;20072;-84
2022/12/03 08:33:47;;;;;;;30.85;12.32;;;;;;;-6.53;60.76;102923.31;4870070;29;20048;-84
2022/12/03 08:36:25;;;;;;;24.45;10.88;;;;;;;-7.46;59.44;102730.84;4874750;29;20069;-84
2022/12/03 08:39:43;;;;;;;29.73;11.52;;;;;;;-8.02;59.22;102676.66;4920151;23;20068;-82
2022/12/03 08:42:41;;;;;;;23.98;7.10;;;;;;;-6.39;59.17;102973.00;4887752;29;20055;-84
2022/12/03 08:45:26;;;;;;;27.33;10.60;;;;;;;-6.64;58.22;102978.59;4910346;29;20048;-88
2022/12/03 08:48:04;;;;;;;32.67;11.02;;;;;;;-8.31;59.38;102731.50;4891248;29;20057;-82
2022/12/03 08:50:40;;;;;;;33.30;12.02;;;;;;;-7.57;59.26;102893.19;4908003;29;20108;-87
2022/12/03 08:53:38;;;;;;;30.08;11.82;;;;;;;-7.01;59.46;102980.44;4910784;29;20071;-82
2022/12/03 08:56:19;;;;;;;30.75;12.32;;;;;;;-6.86;60.08;102984.72;4902965;29;20052;-80
2022/12/03 08:59:20;;;;;;;27.95;11.10;;;;;;;-7.01;60.74;102924.72;4901145;29;20044;-81
2022/12/03 09:01:47;;;;;;;30.10;12.38;;;;;;;-7.08;59.88;102922.25;4916050;29;20108;-87
2022/12/03 09:04:28;;;;;;;30.30;11.80;;;;;;;-6.85;59.62;102983.06;4910255;29;20047;-80
2022/12/03 09:07:09;;;;;;;28.88;11.98;;;;;;;-7.06;59.80;102910.69;4912957;29;20139;-81
2022/12/03 09:09:36;;;;;;;34.90;13.50;;;;;;;-7.09;60.66;102834.38;4910587;29;20079;-83
2022/12/03 09:12:05;;;;;;;35.83;13.32;;;;;;;-6.97;59.44;102861.97;4913668;29;20418;-82
2022/12/03 09:14:31;;;;;;;35.65;11.82;;;;;;;-6.57;58.11;102986.19;4913327;29;20040;-81
2022/12/03 09:16:57;;;;;;;32.97;12.80;;;;;;;-7.45;58.77;102884.47;4914087;29;20044;-81
2022/12/03 09:19:26;;;;;;;29.00;12.43;;;;;;;-7.51;59.32;102872.75;4916780;29;20043;-82
2022/12/03 09:21:53;;;;;;;24.23;10.82;;;;;;;-6.80;59.32;102997.16;4945273;29;20466;-84
2022/12/03 09:24:20;;;;;;;36.50;13.20;;;;;;;-6.71;60.54;102988.03;4945060;29;20055;-84
2022/12/03 09:26:49;;;;;;;34.47;12.20;;;;;;;-7.26;60.33;102882.38;4898067;29;20055;-82
2022/12/03 09:29:31;;;;;;;22.73;9.75;;;;;;;-7.87;59.91;102810.56;4943171;29;20137;-81
2022/12/03 09:32:00;;;;;;;38.88;13.05;;;;;;;-6.57;61.12;103004.78;4945137;29;20059;-83
2022/12/03 09:34:44;;;;;;;31.70;12.00;;;;;;;-7.02;59.37;102930.53;4949749;29;20041;-83
2022/12/03 09:37:10;;;;;;;30.40;12.75;;;;;;;-6.79;59.99;102986.31;4944946;29;20051;-81
2022/12/03 09:39:37;;;;;;;33.42;11.48;;;;;;;-7.04;59.91;102911.72;4910501;29;20063;-86
2022/12/03 09:42:04;;;;;;;34.45;13.38;;;;;;;-6.61;60.26;102967.16;4926282;29;20063;-81
2022/12/03 09:44:33;;;;;;;33.70;13.02;;;;;;;-6.45;60.99;102931.75;4908296;29;20047;-83
2022/12/03 09:47:00;;;;;;;38.92;13.88;;;;;;;-6.20;60.58;102975.03;4893251;29;20036;-85
2022/12/03 09:49:36;;;;;;;31.20;13.05;;;;;;;-7.33;59.84;102766.00;4921042;29;20035;-82
2022/12/03 09:52:10;;;;;;;30.15;12.15;;;;;;;-6.05;60.75;102925.97;4923789;29;20139;-79
2022/12/03 09:54:37;;;;;;;41.10;14.90;;;;;;;-5.82;60.38;102965.56;4924541;29;20486;-84
2022/12/03 09:57:12;;;;;;;42.75;16.40;;;;;;;-5.75;60.73;102957.03;4923445;29;20071;-82
2022/12/03 09:59:41;;;;;;;28.33;10.70;;;;;;;-5.82;59.26;102972.31;4921242;29;20056;-81
2022/12/03 10:02:22;;;;;;;28.95;12.43;;;;;;;-6.32;59.39;102925.53;4889978;29;20050;-79
2022/12/03 10:04:48;;;;;;;34.85;12.70;;;;;;;-6.38;59.57;102953.63;4910241;29;20036;-81
2022/12/03 10:10:36;;;;;;;35.30;12.68;;;;;;;-6.39;60.08;102967.94;4919675;29;20056;-79
2022/12/03 10:16:09;;;;;;;34.17;12.13;;;;;;;-6.88;61.24;102873.81;4815863;29;20046;-81
2022/12/03 10:19:30;;;;;;;;;;;;;;;;;;;;;
2022/12/03 10:23:02;;;;;;;26.15;10.32;;;;;;;-7.27;59.79;102758.16;4904041;29;20076;-81
2022/12/03 10:26:02;;;;;;;28.55;11.25;;;;;;;-7.82;60.92;102682.13;4892377;29;20056;-82
2022/12/03 10:28:46;;;;;;;31.08;12.23;;;;;;;-5.87;60.59;102955.69;4859182;29;20050;-80
2022/12/03 10:31:37;;;;;;;31.95;11.32;;;;;;;-7.14;60.52;102783.22;4839014;29;20057;-81
2022/12/03 10:34:05;;;;;;;33.60;13.18;;;;;;;-7.33;60.76;102755.00;4906360;29;20103;-82
2022/12/03 10:36:40;;;;;;;34.40;13.07;;;;;;;-7.94;60.83;102605.84;4889988;29;20100;-85
2022/12/03 10:39:15;;;;;;;33.15;12.52;;;;;;;-6.81;60.08;102780.94;4903034;29;20062;-83
2022/12/03 10:41:56;;;;;;;;;;;;;;;;;;;;;
2022/12/03 10:44:29;;;;;;;34.30;13.07;;;;;;;-5.70;59.91;102954.97;4894169;29;20046;-83
2022/12/03 10:47:35;;;;;;;33.80;12.80;;;;;;;-7.80;60.53;102655.38;4894786;29;20043;-80
2022/12/03 10:50:20;;;;;;;30.50;11.07;;;;;;;-7.34;60.04;102764.19;4909429;29;20036;-79
2022/12/03 10:52:51;;;;;;;30.45;11.68;;;;;;;-7.20;60.45;102810.41;4911046;29;20055;-81
2022/12/03 10:55:40;;;;;;;31.02;12.65;;;;;;;-7.28;59.70;102810.44;4908439;29;20044;-79
2022/12/03 10:58:25;;;;;;;29.33;11.40;;;;;;;-6.22;61.13;102984.09;4893067;29;20052;-79
2022/12/03 11:00:55;;;;;;;36.88;12.88;;;;;;;-6.77;60.75;102882.59;4894198;29;20040;-83
2022/12/03 11:03:43;;;;;;;35.88;13.05;;;;;;;-6.12;61.42;102974.25;4923784;29;20052;-81
2022/12/03 11:06:20;;;;;;;34.33;13.25;;;;;;;-6.08;61.70;103001.75;4927064;29;20569;-80
2022/12/03 11:09:07;;;;;;;34.00;13.07;;;;;;;-5.77;61.96;102966.09;4914738;29;20048;-81
2022/12/03 11:11:40;;;;;;;34.58;12.60;;;;;;;-6.60;60.82;102843.94;4879413;29;20063;-81
2022/12/03 11:14:10;;;;;;;34.40;12.93;;;;;;;-6.92;60.55;102803.31;4878374;29;20059;-81
2022/12/03 11:16:50;;;;;;;31.00;12.77;;;;;;;-6.16;60.60;102974.63;4908645;29;20501;-81
2022/12/03 11:19:41;;;;;;;38.25;13.48;;;;;;;-7.23;61.79;102790.69;4875709;29;20044;-79
2022/12/03 11:22:20;;;;;;;33.95;13.90;;;;;;;-6.29;60.48;102977.47;4897712;29;20048;-81
2022/12/03 11:25:27;;;;;;;35.75;13.00;;;;;;;-8.06;61.32;102676.16;4865353;29;20048;-80
2022/12/03 11:28:13;;;;;;;41.17;14.70;;;;;;;-6.07;62.26;102962.06;4848921;29;20052;-81
2022/12/03 11:31:01;;;;;;;37.60;14.90;;;;;;;-6.05;61.25;102991.03;4860593;29;20055;-82
2022/12/03 11:33:42;;;;;;;39.25;14.85;;;;;;;-6.98;61.70;102824.72;4878342;29;20044;-80
2022/12/03 11:36:10;;;;;;;36.72;14.18;;;;;;;-6.39;61.77;102913.78;4891635;29;20048;-81
2022/12/03 11:38:44;;;;;;;34.03;14.13;;;;;;;-6.15;61.58;102933.34;4891602;29;20490;-83
2022/12/03 11:41:18;;;;;;;36.90;14.55;;;;;;;-5.80;62.75;102965.75;4889968;29;20052;-79
2022/12/03 11:43:59;;;;;;;38.58;14.65;;;;;;;-5.65;62.53;102967.41;4907174;29;20040;-82
2022/12/03 11:46:38;;;;;;;37.08;14.13;;;;;;;-5.70;61.48;102970.19;4861814;29;20052;-83
2022/12/03 11:49:39;;;;;;;33.60;13.85;;;;;;;-7.32;61.48;102739.97;4876332;29;20104;-82
2022/12/03 11:52:21;;;;;;;33.75;13.40;;;;;;;-6.90;61.48;102817.03;4888016;29;20056;-81
2022/12/03 11:55:24;;;;;;;30.90;13.07;;;;;;;-7.02;61.45;102826.72;4889893;29;20056;-82
2022/12/03 11:58:02;;;;;;;37.20;15.15;;;;;;;-7.36;61.72;102758.06;4830566;29;20062;-81
2022/12/03 12:00:29;;;;;;;32.60;13.15;;;;;;;-6.17;61.42;102984.59;4882904;29;20048;-81
2022/12/03 12:02:57;;;;;;;34.45;13.02;;;;;;;-6.69;61.88;102890.31;4896643;29;20046;-80
2022/12/03 12:05:34;;;;;;;30.30;13.43;;;;;;;-6.19;61.70;102969.22;4880127;29;20124;-81
2022/12/03 12:08:01;;;;;;;34.22;12.35;;;;;;;-6.36;61.93;102947.09;4893837;29;20430;-83